createdAt,value
2019-05-12T00:04:18.710Z,98881.42
2019-05-12T00:09:23.985Z,98884.37
2019-05-12T00:14:29.138Z,98885.70
2019-05-12T00:19:34.237Z,98890.05
2019-05-12T00:24:39.376Z,98905.84
2019-05-12T00:29:44.596Z,98910.08
2019-05-12T00:34:49.665Z,98918.73
2019-05-12T00:39:55.227Z,98924.53
2019-05-12T00:45:00.371Z,98920.65
2019-05-12T00:50:07.834Z,98924.88
2019-05-12T00:55:12.485Z,98924.47
2019-05-12T01:00:18.046Z,98929.82
2019-05-12T01:05:23.023Z,98927.13
2019-05-12T01:10:28.809Z,98936.83
2019-05-12T01:15:34.033Z,98941.53
2019-05-12T01:20:40.433Z,98945.59
2019-05-12T01:25:47.812Z,98944.36
2019-05-12T01:30:53.404Z,98958.43
2019-05-12T01:35:58.829Z,98958.67
2019-05-12T01:41:04.081Z,98964.80
2019-05-12T01:46:09.226Z,98970.88
2019-05-12T01:51:14.799Z,98977.78
2019-05-12T01:56:19.862Z,98980.45
2019-05-12T02:01:24.928Z,98993.67
2019-05-12T02:06:30.064Z,98990.02
2019-05-12T02:11:37.839Z,98994.10
2019-05-12T02:16:42.304Z,98993.80
2019-05-12T02:21:48.774Z,99006.56
2019-05-12T02:26:55.092Z,99027.08
2019-05-12T02:32:00.381Z,99031.39
2019-05-12T02:37:05.773Z,99035.67
2019-05-12T02:42:11.359Z,99042.45
2019-05-12T02:47:16.519Z,99047.42
2019-05-12T02:52:25.037Z,99057.11
2019-05-12T02:57:30.802Z,99049.05
2019-05-12T03:02:37.592Z,99067.00
2019-05-12T03:07:44.976Z,99061.75
2019-05-12T03:12:50.120Z,99066.88
2019-05-12T03:17:55.101Z,99066.13
2019-05-12T03:23:00.175Z,99072.55
2019-05-12T03:28:08.903Z,99082.40
2019-05-12T03:33:18.902Z,99089.08
2019-05-12T03:38:19.052Z,99095.84
2019-05-12T03:43:24.532Z,99102.05
2019-05-12T03:48:29.884Z,99112.50
2019-05-12T03:53:35.665Z,99117.84
2019-05-12T03:58:40.932Z,99132.11
2019-05-12T04:03:46.091Z,99140.23
2019-05-12T04:08:54.447Z,99152.46
2019-05-12T04:13:58.769Z,99166.94
2019-05-12T04:19:05.356Z,99182.38
2019-05-12T04:24:14.093Z,99192.63
2019-05-12T04:29:17.762Z,99197.88
2019-05-12T04:34:25.088Z,99204.44
2019-05-12T04:39:29.947Z,99218.43
2019-05-12T04:44:36.193Z,99222.98
2019-05-12T04:49:44.966Z,99244.15
2019-05-12T04:54:48.908Z,99256.69
2019-05-12T04:59:54.481Z,99263.16
2019-05-12T05:05:00.721Z,99264.00
2019-05-12T05:10:06.007Z,99282.07
2019-05-12T05:15:14.383Z,99279.40
2019-05-12T05:20:19.535Z,99298.30
2019-05-12T05:25:24.700Z,99318.95
2019-05-12T05:30:33.574Z,99334.23
2019-05-12T05:35:40.028Z,99347.09
2019-05-12T05:40:46.797Z,99369.16
2019-05-12T05:45:56.097Z,99380.53
2019-05-12T05:50:59.929Z,99377.73
2019-05-12T05:56:06.284Z,99394.22
2019-05-12T06:01:13.766Z,99400.84
2019-05-12T06:06:19.039Z,99406.73
2019-05-12T06:11:28.387Z,99410.45
2019-05-12T06:16:31.061Z,99410.83
2019-05-12T06:21:38.487Z,99411.21
2019-05-12T06:26:57.084Z,99415.48
2019-05-12T06:31:54.271Z,99414.15
2019-05-12T06:37:03.103Z,99417.00
2019-05-12T06:42:12.359Z,99418.20
2019-05-12T06:47:14.416Z,99425.16
2019-05-12T06:52:20.041Z,99438.12
2019-05-12T06:57:29.141Z,99441.51
2019-05-12T07:02:37.026Z,99453.08
2019-05-12T07:07:44.399Z,99455.52
2019-05-12T07:12:58.922Z,99455.55
2019-05-12T07:18:00.509Z,99468.17
2019-05-12T07:23:05.677Z,99461.63
2019-05-12T07:28:10.973Z,99474.27
2019-05-12T07:33:16.161Z,99483.72
2019-05-12T07:38:25.933Z,99481.80
2019-05-12T07:43:33.647Z,99500.70
2019-05-12T07:48:40.402Z,99473.03
2019-05-12T07:53:54.485Z,99500.34
2019-05-12T07:58:54.796Z,99500.91
2019-05-12T08:04:01.235Z,99510.67
2019-05-12T08:09:07.616Z,99514.84
2019-05-12T08:14:25.058Z,99523.66
2019-05-12T08:19:23.874Z,99525.66
2019-05-12T08:24:27.802Z,99529.94
2019-05-12T08:29:34.231Z,99533.98
2019-05-12T08:34:40.373Z,99539.24
2019-05-12T08:39:45.536Z,99546.29
2019-05-12T08:44:51.111Z,99554.70
2019-05-12T08:49:58.813Z,99556.42
2019-05-12T08:55:04.292Z,99559.30
2019-05-12T09:00:10.383Z,99568.17
2019-05-12T09:05:15.910Z,99560.47
2019-05-12T09:10:23.409Z,99562.61
2019-05-12T09:15:27.987Z,99574.46
2019-05-12T09:20:33.236Z,99568.30
2019-05-12T09:25:39.299Z,99589.33
2019-05-12T09:30:49.352Z,99588.20
2019-05-12T09:35:54.037Z,99602.56
2019-05-12T09:41:01.422Z,99601.28
2019-05-12T09:46:06.507Z,99596.00
2019-05-12T09:51:13.324Z,99609.35
2019-05-12T09:56:18.689Z,99618.92
2019-05-12T10:01:29.279Z,99618.89
2019-05-12T10:06:34.883Z,99617.66
2019-05-12T10:11:40.133Z,99618.19
2019-05-12T10:16:49.739Z,99628.44
2019-05-12T10:21:55.203Z,99636.14
2019-05-12T10:27:00.332Z,99635.90
2019-05-12T10:32:05.912Z,99627.84
2019-05-12T10:37:13.281Z,99627.09
2019-05-12T10:42:18.243Z,99626.12
2019-05-12T10:47:23.978Z,99636.77
2019-05-12T10:52:33.964Z,99629.16
2019-05-12T10:57:36.537Z,99650.66
2019-05-12T11:02:41.788Z,99640.62
2019-05-12T11:07:47.045Z,99639.50
2019-05-12T11:12:52.535Z,99638.72
2019-05-12T11:18:28.655Z,99644.88
2019-05-12T11:23:34.453Z,99643.02
2019-05-12T11:28:39.829Z,99647.62
2019-05-12T11:33:45.154Z,99641.92
2019-05-12T11:38:50.807Z,99642.44
2019-05-12T11:43:56.749Z,99647.57
2019-05-12T11:49:04.265Z,99659.70
2019-05-12T11:54:10.831Z,99661.45
2019-05-12T11:59:16.306Z,99660.20
2019-05-12T12:04:23.550Z,99665.25
2019-05-12T12:09:28.938Z,99665.52
2019-05-12T12:14:34.522Z,99691.08
2019-05-12T12:19:44.649Z,99692.38
2019-05-12T12:24:47.585Z,99693.20
2019-05-12T12:29:54.415Z,99693.39
2019-05-12T12:35:00.957Z,99712.27
2019-05-12T12:40:08.415Z,99715.86
2019-05-12T12:45:23.791Z,99704.74
2019-05-12T12:50:30.764Z,99719.40
2019-05-12T12:55:37.944Z,99714.62
2019-05-12T13:00:48.007Z,99724.97
2019-05-12T13:05:50.729Z,99708.05
2019-05-12T13:10:55.976Z,99716.03
2019-05-12T13:16:04.103Z,99731.84
2019-05-12T13:21:09.087Z,99736.25
2019-05-12T13:26:14.411Z,99729.36
2019-05-12T13:31:19.987Z,99748.98
2019-05-12T13:36:29.572Z,99741.59
2019-05-12T13:41:32.993Z,99741.83
2019-05-12T13:46:38.548Z,99741.38
2019-05-12T13:51:48.289Z,99758.04
2019-05-12T13:56:53.401Z,99757.81
2019-05-12T14:01:58.141Z,99771.94
2019-05-12T14:07:04.047Z,99759.53
2019-05-12T14:12:10.754Z,99743.50
2019-05-12T14:17:16.328Z,99755.20
2019-05-12T14:22:26.262Z,99781.58
2019-05-12T14:27:29.591Z,99755.67
2019-05-12T14:32:35.313Z,99758.58
2019-05-12T14:37:45.677Z,99754.40
2019-05-12T14:42:47.846Z,99764.77
2019-05-12T14:47:54.087Z,99762.57
2019-05-12T14:53:00.640Z,99747.41
2019-05-12T14:58:09.310Z,99749.80
2019-05-12T15:03:16.140Z,99764.78
2019-05-12T15:08:21.486Z,99752.38
2019-05-12T15:13:27.286Z,99758.45
2019-05-12T15:18:32.838Z,99768.78
2019-05-12T15:23:38.108Z,99774.05
2019-05-12T15:28:44.131Z,99781.80
2019-05-12T15:33:49.421Z,99776.38
2019-05-12T15:38:59.021Z,99788.31
2019-05-12T15:44:06.521Z,99783.60
2019-05-12T15:49:12.627Z,99785.80
2019-05-12T15:54:17.973Z,99782.41
2019-05-12T15:59:24.024Z,99794.58
2019-05-12T16:04:34.684Z,99793.52
2019-05-12T16:09:37.141Z,99809.98
2019-05-12T16:14:44.213Z,99798.77
2019-05-12T16:19:49.529Z,99803.77
2019-05-12T16:24:54.762Z,99807.80
2019-05-12T16:30:00.131Z,99805.02
2019-05-12T16:35:07.491Z,99811.33
2019-05-12T16:40:13.829Z,99813.53
2019-05-12T16:45:20.053Z,99819.20
2019-05-12T16:50:28.040Z,99814.05
2019-05-12T16:55:44.755Z,99825.85
2019-05-12T17:00:45.240Z,99832.20
2019-05-12T17:05:50.043Z,99829.34
2019-05-12T17:11:01.231Z,99841.64
2019-05-12T17:16:01.544Z,99836.69
2019-05-12T17:21:06.910Z,99840.87
2019-05-12T17:26:13.890Z,99839.05
2019-05-12T17:31:19.353Z,99849.95
2019-05-12T17:36:24.813Z,99849.27
2019-05-12T17:41:31.429Z,99855.52
2019-05-12T17:46:39.726Z,99858.14
2019-05-12T17:51:44.541Z,99865.45
2019-05-12T17:56:50.425Z,99863.02
2019-05-12T18:01:57.446Z,99867.59
2019-05-12T18:07:04.387Z,99885.27
2019-05-12T18:12:09.995Z,99884.03
2019-05-12T18:17:16.264Z,99885.98
2019-05-12T18:22:23.587Z,99893.52
2019-05-12T18:27:29.122Z,99899.38
2019-05-12T18:32:34.387Z,99906.02
2019-05-12T18:37:39.633Z,99909.47
2019-05-12T18:42:45.848Z,99924.22
2019-05-12T18:47:51.095Z,99934.33
2019-05-12T18:52:57.183Z,99945.92
2019-05-12T18:58:04.357Z,99959.76
2019-05-12T19:03:10.140Z,99959.14
2019-05-12T19:08:16.310Z,99963.26
2019-05-12T19:13:21.926Z,99975.22
2019-05-12T19:18:32.459Z,99987.03
2019-05-12T19:23:37.622Z,99993.63
2019-05-12T19:28:52.526Z,100003.59
2019-05-12T19:34:03.127Z,100003.22
2019-05-12T19:38:56.265Z,100010.01
2019-05-12T19:44:03.946Z,100008.54
2019-05-12T19:49:08.757Z,100012.39
2019-05-12T19:54:19.359Z,100021.89
2019-05-12T19:59:23.644Z,100024.45
2019-05-12T20:04:33.669Z,100028.95
2019-05-12T20:09:35.845Z,100034.47
2019-05-12T20:14:43.362Z,100037.53
2019-05-12T20:19:48.212Z,100042.96
2019-05-12T20:24:53.789Z,100045.19
2019-05-12T20:29:59.099Z,100054.11
2019-05-12T20:35:05.248Z,100057.42
2019-05-12T20:40:10.412Z,100062.24
2019-05-12T20:45:15.764Z,100066.96
2019-05-12T20:50:25.942Z,100070.38
2019-05-12T20:55:29.997Z,100070.31
2019-05-12T21:00:38.861Z,100068.75
2019-05-12T21:05:42.626Z,100077.17
2019-05-12T21:10:47.957Z,100075.48
2019-05-12T21:15:54.232Z,100077.55
2019-05-12T21:20:59.504Z,100077.30
2019-05-12T21:26:05.087Z,100084.70
2019-05-12T21:31:10.262Z,100082.79
2019-05-12T21:36:24.128Z,100093.76
2019-05-12T21:41:24.582Z,100084.06
2019-05-12T21:46:29.917Z,100092.98
2019-05-12T21:51:35.097Z,100099.36
2019-05-12T21:56:47.516Z,100103.38
2019-05-12T22:01:47.991Z,100104.72
2019-05-12T22:06:57.225Z,100108.13
2019-05-12T22:12:00.017Z,100111.22
2019-05-12T22:17:06.944Z,100120.30
2019-05-12T22:22:13.585Z,100127.58
2019-05-12T22:27:25.804Z,100132.37
2019-05-12T22:32:29.548Z,100137.56
2019-05-12T22:37:34.967Z,100146.38
2019-05-12T22:42:39.751Z,100147.64
2019-05-12T22:47:49.133Z,100152.78
2019-05-12T22:52:53.315Z,100145.14
2019-05-12T22:57:58.600Z,100144.48
2019-05-12T23:03:11.662Z,100161.50
2019-05-12T23:08:10.972Z,100160.66
2019-05-12T23:13:16.128Z,100168.96
2019-05-12T23:18:26.901Z,100176.89
2019-05-12T23:23:28.925Z,100173.93
2019-05-12T23:28:34.125Z,100180.06
2019-05-12T23:33:40.297Z,100190.95
2019-05-12T23:38:45.871Z,100188.00
2019-05-12T23:43:51.030Z,100185.73
2019-05-12T23:48:56.276Z,100190.23
2019-05-12T23:54:03.625Z,100188.08
2019-05-12T23:59:08.339Z,100178.92
